createdAt,value
2022-07-28T00:00:37.079Z,15.89
2022-07-28T00:03:09.154Z,15.85
2022-07-28T00:05:41.742Z,15.78
2022-07-28T00:08:13.766Z,15.75
2022-07-28T00:10:45.786Z,15.69
2022-07-28T00:13:17.861Z,15.62
2022-07-28T00:15:50.224Z,15.60
2022-07-28T00:18:22.220Z,15.58
2022-07-28T00:20:54.180Z,15.55
2022-07-28T00:23:37.599Z,15.58
2022-07-28T00:26:12.639Z,15.58
2022-07-28T00:28:44.651Z,15.58
2022-07-28T00:31:16.851Z,15.55
2022-07-28T00:33:49.021Z,15.51
2022-07-28T00:36:24.567Z,15.42
2022-07-28T00:38:57.660Z,15.40
2022-07-28T00:41:29.689Z,15.42
2022-07-28T00:44:01.655Z,15.42
2022-07-28T00:46:34.868Z,15.43
2022-07-28T00:49:07.403Z,15.49
2022-07-28T00:51:40.780Z,15.47
2022-07-28T00:54:12.979Z,15.48
2022-07-28T00:56:45.236Z,15.52
2022-07-28T00:59:17.475Z,15.58
2022-07-28T01:01:49.907Z,15.62
2022-07-28T01:04:25.929Z,15.64
2022-07-28T01:07:23.912Z,15.55
2022-07-28T01:10:16.428Z,15.53
2022-07-28T01:13:04.415Z,15.55
2022-07-28T01:16:03.028Z,15.57
2022-07-28T01:19:04.374Z,15.65
2022-07-28T01:21:40.081Z,15.61
2022-07-28T01:24:44.019Z,15.59
2022-07-28T01:27:49.727Z,15.58
2022-07-28T01:30:39.885Z,15.54
2022-07-28T01:33:48.022Z,15.58
2022-07-28T01:36:27.029Z,15.59
2022-07-28T01:39:00.680Z,15.65
2022-07-28T01:41:34.146Z,15.64
2022-07-28T01:44:11.159Z,15.65
2022-07-28T01:46:45.220Z,15.67
2022-07-28T01:49:20.091Z,15.66
2022-07-28T01:51:53.350Z,15.64
2022-07-28T01:54:28.611Z,15.62
2022-07-28T01:57:02.071Z,15.52
2022-07-28T01:59:35.053Z,15.49
2022-07-28T02:02:08.028Z,15.49
2022-07-28T02:04:41.805Z,15.41
2022-07-28T02:07:15.092Z,15.34
2022-07-28T02:09:47.981Z,15.30
2022-07-28T02:12:20.762Z,15.31
2022-07-28T02:14:54.019Z,15.32
2022-07-28T02:17:31.362Z,15.28
2022-07-28T02:20:06.118Z,15.27
2022-07-28T02:22:40.601Z,15.30
2022-07-28T02:25:13.483Z,15.29
2022-07-28T02:27:52.774Z,15.30
2022-07-28T02:30:47.450Z,15.28
2022-07-28T02:33:58.107Z,15.27
2022-07-28T02:36:31.312Z,15.28
2022-07-28T02:39:08.599Z,15.31
2022-07-28T02:41:42.919Z,15.37
2022-07-28T02:44:29.216Z,15.45
2022-07-28T02:47:05.012Z,15.45
2022-07-28T02:49:39.060Z,15.46
2022-07-28T02:52:12.670Z,15.40
2022-07-28T02:54:45.530Z,15.37
2022-07-28T02:57:19.460Z,15.36
2022-07-28T02:59:53.173Z,15.34
2022-07-28T03:02:25.467Z,15.36
2022-07-28T03:04:59.253Z,15.35
2022-07-28T03:07:33.182Z,15.40
2022-07-28T03:10:06.071Z,15.40
2022-07-28T03:12:38.056Z,15.39
2022-07-28T03:15:10.989Z,15.40
2022-07-28T03:17:44.064Z,15.39
2022-07-28T03:20:16.047Z,15.42
2022-07-28T03:22:48.041Z,15.39
2022-07-28T03:25:48.330Z,15.37
2022-07-28T03:28:22.360Z,15.32
2022-07-28T03:31:09.009Z,15.34
2022-07-28T03:33:41.585Z,15.39
2022-07-28T03:36:19.561Z,15.39
2022-07-28T03:39:03.935Z,15.36
2022-07-28T03:41:37.099Z,15.40
2022-07-28T03:44:12.694Z,15.45
2022-07-28T03:46:46.287Z,15.48
2022-07-28T03:49:18.307Z,15.49
2022-07-28T03:51:50.426Z,15.51
2022-07-28T03:54:22.480Z,15.45
2022-07-28T03:56:54.544Z,15.41
2022-07-28T03:59:26.556Z,15.42
2022-07-28T04:01:58.572Z,15.44
2022-07-28T04:04:30.648Z,15.44
2022-07-28T04:07:02.631Z,15.48
2022-07-28T04:09:34.559Z,15.53
2022-07-28T04:12:07.025Z,15.63
2022-07-28T04:14:39.007Z,15.69
2022-07-28T04:17:11.123Z,15.70
2022-07-28T04:19:43.176Z,15.73
2022-07-28T04:22:15.130Z,15.82
2022-07-28T04:24:47.169Z,15.91
2022-07-28T04:27:19.182Z,15.91
2022-07-28T04:29:51.122Z,15.92
2022-07-28T04:32:23.098Z,15.88
2022-07-28T04:34:55.226Z,15.78
2022-07-28T04:37:27.575Z,15.78
2022-07-28T04:40:07.223Z,15.78
2022-07-28T04:42:40.255Z,15.84
2022-07-28T04:45:12.377Z,15.90
2022-07-28T04:47:44.438Z,15.94
2022-07-28T04:50:19.071Z,15.95
2022-07-28T04:52:51.145Z,15.96
2022-07-28T04:55:23.153Z,16.01
2022-07-28T04:57:55.136Z,16.04
2022-07-28T05:00:27.129Z,16.01
2022-07-28T05:02:59.154Z,16.09
2022-07-28T05:05:31.408Z,16.17
2022-07-28T05:08:03.423Z,16.19
2022-07-28T05:10:35.476Z,16.28
2022-07-28T05:13:08.053Z,16.36
2022-07-28T05:15:40.096Z,16.47
2022-07-28T05:18:12.061Z,16.55
2022-07-28T05:20:44.033Z,16.63
2022-07-28T05:23:17.723Z,16.65
2022-07-28T05:25:49.905Z,16.68
2022-07-28T05:28:22.009Z,16.74
2022-07-28T05:30:54.355Z,16.73
2022-07-28T05:33:31.168Z,16.63
2022-07-28T05:36:05.241Z,16.64
2022-07-28T05:38:37.443Z,16.64
2022-07-28T05:41:09.403Z,16.65
2022-07-28T05:43:41.531Z,16.68
2022-07-28T05:46:13.572Z,16.68
2022-07-28T05:48:46.688Z,16.72
2022-07-28T05:51:18.976Z,16.72
2022-07-28T05:53:50.943Z,16.76
2022-07-28T05:56:23.212Z,16.80
2022-07-28T05:58:55.181Z,16.92
2022-07-28T06:01:27.228Z,16.97
2022-07-28T06:04:25.670Z,17.02
2022-07-28T06:06:51.536Z,17.07
2022-07-28T06:09:23.551Z,17.11
2022-07-28T06:11:56.256Z,17.07
2022-07-28T06:14:28.283Z,17.06
2022-07-28T06:17:00.312Z,17.11
2022-07-28T06:19:35.187Z,17.15
2022-07-28T06:22:07.151Z,17.23
2022-07-28T06:24:39.177Z,17.23
2022-07-28T06:27:11.237Z,17.17
2022-07-28T06:29:43.185Z,17.22
2022-07-28T06:32:17.155Z,17.28
2022-07-28T06:34:49.140Z,17.13
2022-07-28T06:37:21.152Z,17.09
2022-07-28T06:39:53.131Z,17.11
2022-07-28T06:42:25.228Z,17.20
2022-07-28T06:44:59.738Z,17.24
2022-07-28T06:47:32.245Z,17.38
2022-07-28T06:50:06.116Z,17.47
2022-07-28T06:52:58.984Z,17.52
2022-07-28T06:55:35.551Z,17.57
2022-07-28T06:58:08.465Z,17.65
2022-07-28T07:00:40.522Z,17.84
2022-07-28T07:03:12.592Z,17.97
2022-07-28T07:05:44.630Z,18.02
2022-07-28T07:08:21.055Z,17.89
2022-07-28T07:10:53.116Z,18.03
2022-07-28T07:13:25.293Z,18.24
2022-07-28T07:15:57.376Z,18.48
2022-07-28T07:18:29.546Z,18.66
2022-07-28T07:21:01.581Z,18.82
2022-07-28T07:23:35.554Z,18.95
2022-07-28T07:26:07.550Z,19.05
2022-07-28T07:28:41.941Z,19.24
2022-07-28T07:31:14.166Z,19.39
2022-07-28T07:33:46.550Z,19.50
2022-07-28T07:36:18.675Z,19.60
2022-07-28T07:38:50.715Z,19.78
2022-07-28T07:41:23.163Z,19.80
2022-07-28T07:43:55.212Z,19.77
2022-07-28T07:46:27.272Z,19.85
2022-07-28T07:48:59.380Z,19.86
2022-07-28T07:51:31.550Z,19.83
2022-07-28T07:54:03.629Z,19.81
2022-07-28T07:56:35.634Z,19.90
2022-07-28T07:59:07.710Z,20.13
2022-07-28T08:01:40.450Z,20.22
2022-07-28T08:04:14.235Z,20.27
2022-07-28T08:06:48.079Z,20.33
2022-07-28T08:09:20.334Z,20.43
2022-07-28T08:11:52.332Z,20.58
2022-07-28T08:14:24.326Z,20.52
2022-07-28T08:16:58.595Z,20.40
2022-07-28T08:19:30.626Z,20.46
2022-07-28T08:22:02.689Z,20.52
2022-07-28T08:24:34.787Z,20.60
2022-07-28T08:27:07.266Z,20.63
2022-07-28T08:29:39.315Z,20.70
2022-07-28T08:32:11.295Z,20.79
2022-07-28T08:34:43.275Z,20.91
2022-07-28T08:37:15.262Z,20.97
2022-07-28T08:39:47.242Z,20.99
2022-07-28T08:42:27.404Z,21.13
2022-07-28T08:45:04.024Z,21.39
2022-07-28T08:47:58.636Z,21.39
2022-07-28T08:50:31.248Z,21.19
2022-07-28T08:53:03.629Z,21.08
2022-07-28T08:55:37.048Z,21.02
2022-07-28T08:58:09.294Z,21.01
2022-07-28T09:00:42.094Z,21.01
2022-07-28T09:03:15.081Z,21.04
2022-07-28T09:05:47.640Z,21.13
2022-07-28T09:08:19.804Z,21.15
2022-07-28T09:10:52.617Z,21.30
2022-07-28T09:13:24.680Z,21.54
2022-07-28T09:15:57.527Z,21.65
2022-07-28T09:18:29.602Z,22.17
2022-07-28T09:21:01.578Z,22.43
2022-07-28T09:23:48.819Z,22.64
2022-07-28T09:26:20.909Z,22.46
2022-07-28T09:28:56.266Z,22.43
2022-07-28T09:31:30.692Z,22.28
2022-07-28T09:34:06.184Z,21.96
2022-07-28T09:36:40.954Z,22.04
2022-07-28T09:39:32.736Z,22.08
2022-07-28T09:42:04.892Z,22.20
2022-07-28T09:44:37.058Z,22.22
2022-07-28T09:47:25.138Z,22.28
2022-07-28T09:49:57.313Z,23.29
2022-07-28T09:52:38.448Z,24.51
2022-07-28T09:55:12.753Z,25.38
2022-07-28T09:57:45.820Z,26.00
2022-07-28T10:00:28.470Z,26.44
2022-07-28T10:03:00.866Z,26.76
2022-07-28T10:05:41.109Z,26.54
2022-07-28T10:08:13.049Z,25.91
2022-07-28T10:11:00.794Z,25.38
2022-07-28T10:13:33.044Z,25.08
2022-07-28T10:16:12.518Z,25.22
2022-07-28T10:18:45.076Z,25.00
2022-07-28T10:21:20.604Z,24.61
2022-07-28T10:23:56.256Z,24.29
2022-07-28T10:26:57.043Z,23.91
2022-07-28T10:29:31.629Z,23.68
2022-07-28T10:32:06.417Z,23.49
2022-07-28T10:34:45.313Z,23.14
2022-07-28T10:37:27.848Z,22.82
2022-07-28T10:40:10.719Z,22.73
2022-07-28T10:42:43.250Z,22.99
2022-07-28T10:45:16.424Z,23.61
2022-07-28T10:47:49.292Z,24.57
2022-07-28T10:50:22.000Z,25.44
2022-07-28T10:52:58.953Z,25.82
2022-07-28T10:55:49.675Z,26.87
2022-07-28T10:58:50.404Z,26.70
2022-07-28T11:01:50.320Z,26.60
2022-07-28T11:04:41.657Z,27.95
2022-07-28T11:07:17.091Z,28.99
2022-07-28T11:09:49.788Z,29.54
2022-07-28T11:12:52.340Z,29.64
2022-07-28T11:15:38.352Z,29.37
2022-07-28T11:18:10.808Z,29.22
2022-07-28T11:21:00.700Z,29.10
2022-07-28T11:23:53.896Z,29.03
2022-07-28T11:26:38.201Z,28.48
2022-07-28T11:29:13.239Z,27.98
2022-07-28T11:31:45.271Z,28.27
2022-07-28T11:34:23.819Z,29.02
2022-07-28T11:37:15.214Z,29.69
2022-07-28T11:39:47.463Z,28.33
2022-07-28T11:42:33.828Z,28.23
2022-07-28T11:45:35.887Z,28.06
2022-07-28T11:48:25.288Z,29.71
2022-07-28T11:51:03.270Z,31.24
2022-07-28T11:53:52.909Z,32.62
2022-07-28T11:56:31.785Z,33.37
2022-07-28T11:59:08.031Z,33.58
2022-07-28T12:01:56.958Z,33.58
2022-07-28T12:04:29.381Z,32.08
2022-07-28T12:07:02.552Z,32.56
2022-07-28T12:09:41.903Z,32.75
2022-07-28T12:12:14.487Z,32.56
2022-07-28T12:14:46.921Z,32.41
2022-07-28T12:17:19.051Z,32.70
2022-07-28T12:19:52.895Z,33.48
2022-07-28T12:22:26.182Z,33.42
2022-07-28T12:24:58.463Z,32.74
2022-07-28T12:27:31.839Z,32.71
2022-07-28T12:30:05.769Z,33.04
2022-07-28T12:32:37.748Z,33.38
2022-07-28T12:35:10.217Z,33.61
2022-07-28T12:37:44.372Z,33.41
2022-07-28T12:40:27.445Z,32.76
2022-07-28T12:42:59.725Z,32.33
2022-07-28T12:45:33.492Z,32.54
2022-07-28T12:48:09.101Z,33.00
2022-07-28T12:50:41.737Z,33.67
2022-07-28T12:53:15.225Z,34.09
2022-07-28T12:55:47.476Z,33.16
2022-07-28T12:58:28.803Z,31.87
2022-07-28T13:01:01.576Z,32.61
2022-07-28T13:03:33.920Z,32.51
2022-07-28T13:06:15.764Z,33.54
2022-07-28T13:08:48.137Z,34.31
2022-07-28T13:11:47.432Z,35.26
2022-07-28T13:14:44.403Z,36.38
2022-07-28T13:17:16.654Z,36.93
2022-07-28T13:19:49.586Z,36.18
2022-07-28T13:22:30.037Z,36.01
2022-07-28T13:25:02.545Z,36.44
2022-07-28T13:27:35.212Z,36.52
2022-07-28T13:30:11.904Z,35.89
2022-07-28T13:32:44.163Z,34.52
2022-07-28T13:35:18.137Z,33.73
2022-07-28T13:37:51.336Z,32.86
2022-07-28T13:40:23.409Z,31.61
2022-07-28T13:42:57.021Z,30.80
2022-07-28T13:45:30.343Z,30.37
2022-07-28T13:48:06.212Z,30.15
2022-07-28T13:50:41.450Z,29.85
2022-07-28T13:53:39.470Z,29.72
2022-07-28T13:56:12.055Z,28.93
2022-07-28T13:58:44.170Z,27.92
2022-07-28T14:01:16.223Z,27.83
2022-07-28T14:03:55.619Z,27.82
2022-07-28T14:06:30.412Z,28.49
2022-07-28T14:09:05.111Z,29.37
2022-07-28T14:11:37.700Z,29.96
2022-07-28T14:14:09.702Z,30.00
2022-07-28T14:16:47.452Z,29.82
2022-07-28T14:19:23.360Z,29.87
2022-07-28T14:22:13.805Z,29.45
2022-07-28T14:24:46.212Z,28.92
2022-07-28T14:27:18.171Z,28.48
2022-07-28T14:29:50.274Z,28.21
2022-07-28T14:32:22.298Z,27.56
2022-07-28T14:34:54.652Z,27.53
2022-07-28T14:37:27.501Z,27.35
2022-07-28T14:39:59.504Z,27.17
2022-07-28T14:42:31.492Z,26.94
2022-07-28T14:45:05.692Z,26.74
2022-07-28T14:47:45.202Z,26.64
2022-07-28T14:50:17.652Z,25.96
2022-07-28T14:52:50.288Z,25.77
2022-07-28T14:55:22.352Z,25.87
2022-07-28T14:57:55.170Z,25.90
2022-07-28T15:00:28.487Z,25.83
2022-07-28T15:03:00.518Z,25.74
2022-07-28T15:05:34.454Z,25.70
2022-07-28T15:08:06.581Z,25.61
2022-07-28T15:10:39.107Z,25.50
2022-07-28T15:13:11.095Z,25.45
2022-07-28T15:15:44.864Z,25.47
2022-07-28T15:18:16.952Z,25.41
2022-07-28T15:20:49.829Z,25.22
2022-07-28T15:23:23.007Z,25.20
2022-07-28T15:25:56.237Z,25.17
2022-07-28T15:28:28.836Z,25.23
2022-07-28T15:31:01.286Z,25.28
2022-07-28T15:33:48.203Z,25.26
2022-07-28T15:36:25.367Z,25.24
2022-07-28T15:38:57.370Z,25.24
2022-07-28T15:41:29.847Z,25.25
2022-07-28T15:44:01.872Z,25.17
2022-07-28T15:46:34.130Z,24.90
2022-07-28T15:49:09.883Z,24.78
2022-07-28T15:51:42.103Z,24.67
2022-07-28T15:54:14.344Z,24.72
2022-07-28T15:56:46.527Z,24.69
2022-07-28T15:59:18.586Z,24.69
2022-07-28T16:01:50.750Z,24.76
2022-07-28T16:04:22.771Z,24.87
2022-07-28T16:07:14.191Z,24.94
2022-07-28T16:09:47.032Z,24.84
2022-07-28T16:12:19.197Z,24.85
2022-07-28T16:14:54.098Z,24.89
2022-07-28T16:17:26.354Z,24.78
2022-07-28T16:20:02.456Z,24.71
2022-07-28T16:22:38.840Z,24.59
2022-07-28T16:25:16.493Z,24.47
2022-07-28T16:27:49.463Z,24.55
2022-07-28T16:30:21.594Z,24.55
2022-07-28T16:32:55.155Z,24.56
2022-07-28T16:35:32.774Z,24.50
2022-07-28T16:38:05.955Z,24.50
2022-07-28T16:40:41.256Z,24.55
2022-07-28T16:43:13.326Z,24.67
2022-07-28T16:45:45.355Z,24.72
2022-07-28T16:48:17.456Z,24.65
2022-07-28T16:50:49.506Z,24.54
2022-07-28T16:53:21.549Z,24.52
2022-07-28T16:55:53.817Z,24.49
2022-07-28T16:58:26.093Z,24.40
2022-07-28T17:00:58.224Z,24.34
2022-07-28T17:03:31.173Z,24.34
2022-07-28T17:06:03.995Z,24.25
2022-07-28T17:08:36.710Z,24.26
2022-07-28T17:11:08.733Z,24.24
2022-07-28T17:13:45.067Z,24.18
2022-07-28T17:16:17.567Z,24.18
2022-07-28T17:18:49.763Z,24.07
2022-07-28T17:21:21.902Z,24.07
2022-07-28T17:23:53.944Z,24.05
2022-07-28T17:29:18.174Z,23.74
2022-07-28T17:31:50.489Z,23.59
2022-07-28T17:34:22.633Z,23.50
2022-07-28T17:36:55.579Z,23.35
2022-07-28T17:39:27.872Z,23.31
2022-07-28T17:41:59.846Z,23.25
2022-07-28T17:44:31.911Z,23.16
2022-07-28T17:47:04.908Z,23.09
2022-07-28T17:49:42.075Z,23.06
2022-07-28T17:52:17.276Z,22.94
2022-07-28T17:55:10.224Z,22.88
2022-07-28T17:57:42.191Z,22.69
2022-07-28T18:00:15.077Z,22.69
2022-07-28T18:02:49.868Z,22.66
2022-07-28T18:05:22.973Z,22.56
2022-07-28T18:07:59.052Z,22.55
2022-07-28T18:10:31.626Z,22.57
2022-07-28T18:13:04.875Z,22.49
2022-07-28T18:15:37.036Z,22.43
2022-07-28T18:18:10.047Z,22.37
2022-07-28T18:20:42.604Z,22.24
2022-07-28T18:23:15.259Z,22.19
2022-07-28T18:25:56.916Z,22.22
2022-07-28T18:28:29.049Z,22.18
2022-07-28T18:31:01.114Z,22.15
2022-07-28T18:33:33.136Z,22.10
2022-07-28T18:36:05.520Z,22.03
2022-07-28T18:38:37.478Z,21.90
2022-07-28T18:41:09.483Z,21.89
2022-07-28T18:43:41.884Z,21.78
2022-07-28T18:46:14.106Z,21.72
2022-07-28T18:48:48.485Z,21.71
2022-07-28T18:51:22.419Z,21.62
2022-07-28T18:53:57.712Z,21.54
2022-07-28T18:56:29.736Z,21.51
2022-07-28T18:59:01.698Z,21.48
2022-07-28T19:01:33.776Z,21.40
2022-07-28T19:04:05.812Z,21.36
2022-07-28T19:06:37.873Z,21.27
2022-07-28T19:09:09.950Z,21.18
2022-07-28T19:11:46.040Z,21.14
2022-07-28T19:14:19.239Z,21.09
2022-07-28T19:16:51.633Z,20.97
2022-07-28T19:19:23.711Z,20.92
2022-07-28T19:21:55.990Z,20.86
2022-07-28T19:24:28.003Z,20.81
2022-07-28T19:27:00.599Z,20.76
2022-07-28T19:29:34.893Z,20.74
2022-07-28T19:32:08.008Z,20.64
2022-07-28T19:34:40.088Z,20.60
2022-07-28T19:37:16.725Z,20.54
2022-07-28T19:39:49.468Z,20.48
2022-07-28T19:42:21.519Z,20.39
2022-07-28T19:44:56.091Z,20.36
2022-07-28T19:47:28.356Z,20.34
2022-07-28T19:50:00.412Z,20.27
2022-07-28T19:52:33.028Z,20.16
2022-07-28T19:55:06.387Z,20.13
2022-07-28T19:57:38.349Z,20.11
2022-07-28T20:00:11.705Z,20.08
2022-07-28T20:02:44.185Z,19.92
2022-07-28T20:05:16.309Z,19.82
2022-07-28T20:07:48.468Z,19.83
2022-07-28T20:10:20.862Z,19.76
2022-07-28T20:12:53.249Z,19.69
2022-07-28T20:15:26.067Z,19.62
2022-07-28T20:17:58.161Z,19.57
2022-07-28T20:20:30.116Z,19.54
2022-07-28T20:23:02.187Z,19.50
2022-07-28T20:25:34.220Z,19.44
2022-07-28T20:28:06.253Z,19.33
2022-07-28T20:30:39.465Z,19.25
2022-07-28T20:33:11.509Z,19.20
2022-07-28T20:35:43.544Z,19.16
2022-07-28T20:38:15.572Z,19.14
2022-07-28T20:40:47.573Z,19.14
2022-07-28T20:43:19.624Z,19.12
2022-07-28T20:45:51.642Z,19.11
2022-07-28T20:48:23.667Z,19.08
2022-07-28T20:50:55.728Z,19.05
2022-07-28T20:53:27.821Z,19.01
2022-07-28T20:56:00.184Z,18.97
2022-07-28T20:58:32.230Z,18.88
2022-07-28T21:01:06.673Z,18.84
2022-07-28T21:03:39.600Z,18.84
2022-07-28T21:06:16.285Z,18.80
2022-07-28T21:08:49.267Z,18.76
2022-07-28T21:11:23.532Z,18.75
2022-07-28T21:13:56.716Z,18.71
2022-07-28T21:16:28.805Z,18.69
2022-07-28T21:19:02.162Z,18.66
2022-07-28T21:21:34.208Z,18.61
2022-07-28T21:24:06.994Z,18.56
2022-07-28T21:26:42.846Z,18.50
2022-07-28T21:32:04.266Z,18.45
2022-07-28T21:34:38.167Z,18.40
2022-07-28T21:37:11.954Z,18.31
2022-07-28T21:39:44.208Z,18.31
2022-07-28T21:42:16.185Z,18.26
2022-07-28T21:44:48.604Z,18.26
2022-07-28T21:47:20.565Z,18.23
2022-07-28T21:49:53.841Z,18.19
2022-07-28T21:52:28.303Z,18.17
2022-07-28T21:55:01.952Z,18.16
2022-07-28T21:57:34.758Z,18.05
2022-07-28T22:00:13.892Z,18.03
2022-07-28T22:02:45.878Z,18.01
2022-07-28T22:05:18.852Z,17.98
2022-07-28T22:07:52.217Z,18.04
2022-07-28T22:10:25.146Z,17.99
2022-07-28T22:12:59.638Z,17.96
2022-07-28T22:15:31.636Z,17.90
2022-07-28T22:18:03.792Z,17.83
2022-07-28T22:20:35.854Z,17.78
2022-07-28T22:23:11.542Z,17.73
2022-07-28T22:26:00.602Z,17.67
2022-07-28T22:28:32.534Z,17.67
2022-07-28T22:31:09.097Z,17.62
2022-07-28T22:33:41.657Z,17.57
2022-07-28T22:36:14.175Z,17.56
2022-07-28T22:38:46.134Z,17.59
2022-07-28T22:41:18.094Z,17.58
2022-07-28T22:43:50.124Z,17.55
2022-07-28T22:46:22.254Z,17.54
2022-07-28T22:48:55.286Z,17.55
2022-07-28T22:51:27.357Z,17.50
2022-07-28T22:54:00.528Z,17.47
2022-07-28T22:56:35.063Z,17.49
2022-07-28T22:59:10.005Z,17.46
2022-07-28T23:01:44.269Z,17.37
2022-07-28T23:04:16.770Z,17.37
2022-07-28T23:06:49.138Z,17.30
2022-07-28T23:09:21.085Z,17.26
2022-07-28T23:11:55.534Z,17.26
2022-07-28T23:14:27.943Z,17.31
2022-07-28T23:16:59.935Z,17.28
2022-07-28T23:19:31.896Z,17.22
2022-07-28T23:22:05.011Z,17.25
2022-07-28T23:24:37.012Z,17.22
2022-07-28T23:27:09.009Z,17.15
2022-07-28T23:29:40.990Z,17.13
2022-07-28T23:32:17.020Z,17.11
2022-07-28T23:34:49.854Z,17.11
2022-07-28T23:37:21.824Z,17.08
2022-07-28T23:39:53.826Z,17.06
2022-07-28T23:42:25.814Z,17.08
2022-07-28T23:44:57.783Z,17.04
2022-07-28T23:47:29.837Z,17.05
2022-07-28T23:50:03.995Z,16.99
2022-07-28T23:52:35.952Z,16.97
2022-07-28T23:55:08.565Z,16.99
2022-07-28T23:57:40.549Z,17.01
